Time;durP1;ratioP1;P1;durP2;ratioP2;P2;SDS_P1;SDS_P2;PMS_P1;PMS_P2;Temp;Humidity;BMP_temperature;BMP_pressure;BME280_temperature;BME280_humidity;BME280_pressure;Samples;Min_cycle;Max_cycle;Signal;HPM_P1;HPM_P2
2023/01/09 00:01:37;;;;;;;;;1.50;0.75;;;;;10.57;66.15;99517.34;4942244;28;45666;-70
2023/01/09 00:04:03;;;;;;;;;0.75;0.25;;;;;10.67;66.35;99531.09;4930951;28;45386;-71
2023/01/09 00:06:28;;;;;;;;;0.00;0.00;;;;;10.64;66.67;99529.47;4953645;28;45516;-71
2023/01/09 00:08:54;;;;;;;;;1.50;0.00;;;;;10.59;66.61;99512.78;4940738;28;48328;-71
2023/01/09 00:11:19;;;;;;;;;0.00;0.00;;;;;10.64;66.86;99528.56;4950662;28;45867;-71
2023/01/09 00:13:46;;;;;;;;;0.50;0.50;;;;;10.64;66.51;99531.25;4944622;28;45318;-70
2023/01/09 00:16:12;;;;;;;;;2.00;0.00;;;;;10.65;66.27;99539.16;4947021;28;45259;-70
2023/01/09 00:18:38;;;;;;;;;1.00;0.00;;;;;10.64;66.76;99553.47;4942421;28;46285;-70
2023/01/09 00:21:06;;;;;;;;;1.75;1.00;;;;;10.58;66.25;99543.09;4946918;28;47495;-70
2023/01/09 00:23:31;;;;;;;;;0.50;0.50;;;;;10.55;66.45;99540.59;4946451;28;45542;-70
2023/01/09 00:26:11;;;;;;;;;0.00;0.00;;;;;10.53;66.15;99539.81;4942285;28;45311;-70
2023/01/09 00:28:38;;;;;;;;;1.50;1.00;;;;;10.40;67.04;99528.91;4941467;28;46375;-70
2023/01/09 00:31:05;;;;;;;;;1.00;0.00;;;;;10.44;66.57;99529.59;4941907;28;45409;-70
2023/01/09 00:33:37;;;;;;;;;0.00;0.00;;;;;10.48;67.04;99541.84;4944026;28;45718;-70
2023/01/09 00:36:03;;;;;;;;;1.75;0.50;;;;;10.49;66.55;99539.13;4944235;28;45405;-71
2023/01/09 00:38:28;;;;;;;;;1.50;0.00;;;;;10.45;66.86;99529.53;4940152;28;45527;-70
2023/01/09 00:40:54;;;;;;;;;0.25;0.00;;;;;10.42;66.92;99527.00;4945742;28;45326;-70
2023/01/09 00:43:23;;;;;;;;;0.00;0.00;;;;;10.43;67.04;99525.22;4947775;28;45430;-70
2023/01/09 00:45:49;;;;;;;;;1.00;0.00;;;;;10.44;66.75;99527.81;4929935;28;45355;-70
2023/01/09 00:48:23;;;;;;;;;1.00;1.00;;;;;10.48;67.00;99539.19;4944978;28;47125;-71
2023/01/09 00:50:50;;;;;;;;;0.75;0.00;;;;;10.38;66.81;99530.78;4938656;28;45580;-70
2023/01/09 00:53:19;;;;;;;;;0.00;0.00;;;;;10.33;66.58;99517.69;4947937;28;45563;-70
2023/01/09 00:55:45;;;;;;;;;0.75;0.75;;;;;10.34;67.00;99535.41;4944358;28;45441;-70
2023/01/09 00:58:10;;;;;;;;;0.00;0.00;;;;;10.38;67.10;99549.47;4941405;28;47386;-70
2023/01/09 01:00:35;;;;;;;;;0.50;0.00;;;;;10.34;66.59;99539.88;4948757;28;45317;-71
2023/01/09 01:03:01;;;;;;;;;0.75;0.00;;;;;10.23;66.66;99529.72;4941572;28;45754;-70
2023/01/09 01:08:13;;;;;;;;;2.25;1.00;;;;;10.39;66.49;99559.19;4940082;28;45529;-70
2023/01/09 01:10:38;;;;;;;;;1.00;0.00;;;;;10.14;66.78;99538.16;4953826;28;45513;-70
2023/01/09 01:13:04;;;;;;;;;2.25;0.00;;;;;10.29;67.09;99564.09;4956339;28;45411;-70
2023/01/09 01:15:30;;;;;;;;;3.00;0.00;;;;;10.25;66.83;99549.19;4967682;28;46144;-70
2023/01/09 01:17:55;;;;;;;;;1.00;0.00;;;;;10.23;66.82;99559.06;4939064;28;45602;-70
2023/01/09 01:20:21;;;;;;;;;1.00;0.00;;;;;10.24;67.08;99562.59;4943569;28;45291;-70
2023/01/09 01:22:46;;;;;;;;;4.00;1.00;;;;;10.24;67.07;99559.91;4941195;28;45532;-70
2023/01/09 01:25:13;;;;;;;;;0.00;0.00;;;;;10.17;66.79;99546.03;4945515;28;45399;-70
2023/01/09 01:27:39;;;;;;;;;0.75;0.75;;;;;10.16;67.03;99546.97;4927127;28;47093;-70
2023/01/09 01:30:07;;;;;;;;;0.50;0.50;;;;;10.18;67.06;99547.75;4943863;28;45648;-70
2023/01/09 01:32:32;;;;;;;;;3.00;0.50;;;;;10.17;67.18;99554.91;4924636;28;45284;-70
2023/01/09 01:34:58;;;;;;;;;0.25;0.25;;;;;10.20;67.29;99564.53;4942918;28;45709;-70
2023/01/09 01:37:23;;;;;;;;;1.00;0.00;;;;;10.24;67.37;99582.13;4940349;28;45332;-70
2023/01/09 01:39:50;;;;;;;;;0.00;0.00;;;;;10.14;67.32;99564.84;4943729;28;45379;-70
2023/01/09 01:42:17;;;;;;;;;0.00;0.00;;;;;10.29;66.83;99589.88;4941946;28;45391;-70
2023/01/09 01:45:01;;;;;;;;;1.00;0.00;;;;;10.29;66.92;99600.56;4944343;28;45471;-70
2023/01/09 01:47:39;;;;;;;;;0.50;0.50;;;;;10.26;67.00;99590.06;4946491;28;45313;-70
2023/01/09 01:50:13;;;;;;;;;1.00;1.00;;;;;10.12;67.39;99558.72;4938685;28;45426;-70
2023/01/09 01:52:39;;;;;;;;;1.50;1.00;;;;;10.24;67.04;99576.81;4966244;28;45481;-70
2023/01/09 01:55:08;;;;;;;;;3.00;0.75;;;;;10.28;67.22;99580.19;4940531;28;45509;-70
2023/01/09 01:57:36;;;;;;;;;4.00;2.00;;;;;10.32;67.35;99590.66;4947574;28;45433;-70
2023/01/09 02:00:03;;;;;;;;;0.75;0.75;;;;;10.36;67.21;99591.38;4941697;28;45655;-70
2023/01/09 02:02:31;;;;;;;;;2.00;1.00;;;;;10.17;67.08;99557.56;4948019;28;45400;-70
2023/01/09 02:04:58;;;;;;;;;3.25;0.00;;;;;10.37;66.82;99591.28;4940576;28;45332;-70
2023/01/09 02:07:24;;;;;;;;;2.00;0.25;;;;;10.33;67.32;99575.50;4946634;28;46275;-70
2023/01/09 02:09:50;;;;;;;;;1.00;0.50;;;;;10.30;66.83;99579.16;4942360;28;45381;-70
2023/01/09 02:12:23;;;;;;;;;2.25;1.00;;;;;10.37;66.92;99585.06;4964150;28;45385;-70
2023/01/09 02:15:02;;;;;;;;;1.00;1.00;;;;;10.35;67.12;99585.16;4941835;28;45268;-70
2023/01/09 02:17:33;;;;;;;;;1.00;0.00;;;;;10.34;66.70;99591.44;4953760;28;47058;-70
2023/01/09 02:20:36;;;;;;;;;1.00;1.00;;;;;10.34;67.16;99595.88;4944744;28;45390;-70
2023/01/09 02:23:45;;;;;;;;;0.25;0.00;;;;;10.33;67.03;99597.69;4941712;28;45509;-70
2023/01/09 02:26:22;;;;;;;;;4.25;0.50;;;;;10.32;67.00;99601.31;4941223;28;45452;-70
2023/01/09 02:29:39;;;;;;;;;0.00;0.00;;;;;10.29;67.42;99609.44;4934102;28;45498;-70
2023/01/09 02:32:41;;;;;;;;;1.25;1.00;;;;;10.24;67.24;99602.59;4941411;28;45713;-70
2023/01/09 02:35:09;;;;;;;;;4.25;0.50;;;;;10.17;67.67;99596.69;4948403;28;45801;-70
2023/01/09 02:37:56;;;;;;;;;4.00;3.25;;;;;10.12;67.76;99593.38;4949640;28;46415;-70
2023/01/09 02:40:32;;;;;;;;;0.50;0.50;;;;;10.21;67.54;99619.63;4952291;28;48237;-70
2023/01/09 02:43:00;;;;;;;;;2.50;1.50;;;;;10.17;67.78;99610.03;4946053;28;45345;-70
2023/01/09 02:45:25;;;;;;;;;1.50;0.00;;;;;10.19;67.34;99618.84;4933337;28;45621;-70
2023/01/09 02:47:51;;;;;;;;;2.00;2.00;;;;;10.02;67.66;99601.84;4941448;28;45450;-70
2023/01/09 02:50:22;;;;;;;;;2.00;1.00;;;;;10.14;68.00;99616.38;4959366;28;47984;-70
2023/01/09 02:53:16;;;;;;;;;2.50;0.25;;;;;10.19;67.97;99618.84;4945313;28;45507;-70
2023/01/09 02:56:02;;;;;;;;;1.50;0.50;;;;;10.11;67.70;99615.69;4943405;28;45365;-70
2023/01/09 02:58:51;;;;;;;;;1.00;1.00;;;;;10.20;67.72;99615.22;4946642;28;45342;-70
2023/01/09 03:01:37;;;;;;;;;1.50;1.00;;;;;10.23;68.04;99619.56;4947723;28;47728;-70
2023/01/09 03:04:28;;;;;;;;;2.00;0.75;;;;;10.13;68.07;99595.13;4955535;28;45559;-70
2023/01/09 03:07:22;;;;;;;;;1.75;0.75;;;;;10.11;68.07;99591.69;4951542;28;45281;-70
2023/01/09 03:09:51;;;;;;;;;0.00;0.00;;;;;10.26;67.55;99616.72;4945591;28;45494;-70
2023/01/09 03:12:21;;;;;;;;;2.00;1.00;;;;;10.19;67.58;99609.03;4946460;28;48642;-70
2023/01/09 03:14:50;;;;;;;;;3.00;1.00;;;;;10.25;67.70;99623.00;4956004;28;45370;-70
2023/01/09 03:17:28;;;;;;;;;3.50;1.00;;;;;10.10;67.89;99598.78;4950422;28;45386;-70
2023/01/09 03:19:56;;;;;;;;;3.25;1.75;;;;;10.16;68.19;99614.50;4950439;28;45392;-70
2023/01/09 03:22:22;;;;;;;;;3.75;1.00;;;;;10.27;68.01;99632.63;4947196;28;45600;-70
2023/01/09 03:24:48;;;;;;;;;1.00;1.00;;;;;10.29;67.79;99630.78;4942837;28;45762;-70
2023/01/09 03:27:14;;;;;;;;;3.25;1.00;;;;;10.24;67.43;99626.59;4945601;28;45373;-70
2023/01/09 03:29:39;;;;;;;;;1.75;1.00;;;;;10.31;67.75;99631.56;4940428;28;45668;-70
2023/01/09 03:32:05;;;;;;;;;1.75;1.75;;;;;10.24;67.17;99614.16;4941518;28;45899;-70
2023/01/09 03:34:30;;;;;;;;;4.00;1.00;;;;;10.27;67.38;99613.09;4943748;28;45323;-70
2023/01/09 03:36:55;;;;;;;;;1.75;1.00;;;;;10.30;67.67;99620.97;4947939;28;45238;-70
2023/01/09 03:39:21;;;;;;;;;1.75;0.00;;;;;10.33;67.65;99626.19;4940465;28;45294;-70
2023/01/09 03:41:46;;;;;;;;;2.00;0.25;;;;;10.32;67.57;99630.66;4946272;28;47884;-70
2023/01/09 03:44:11;;;;;;;;;2.00;0.75;;;;;10.36;67.79;99632.22;4941367;28;47049;-70
2023/01/09 03:46:37;;;;;;;;;3.00;0.00;;;;;10.37;67.44;99635.75;4943951;28;45613;-70
2023/01/09 03:49:02;;;;;;;;;1.00;0.00;;;;;10.33;67.74;99623.53;4956224;28;45452;-70
2023/01/09 03:51:28;;;;;;;;;0.00;0.00;;;;;10.30;67.82;99624.50;4954374;28;45465;-70
2023/01/09 03:53:53;;;;;;;;;2.75;1.00;;;;;10.36;67.17;99639.38;4942063;28;45449;-71
2023/01/09 03:56:19;;;;;;;;;0.25;0.25;;;;;10.34;67.28;99626.13;4950495;28;45825;-70
2023/01/09 03:58:44;;;;;;;;;1.00;0.00;;;;;10.36;67.58;99632.22;4943629;28;45621;-70
2023/01/09 04:01:11;;;;;;;;;2.00;1.00;;;;;10.30;67.53;99627.16;4963792;28;48249;-70
2023/01/09 04:03:37;;;;;;;;;1.75;0.50;;;;;10.30;67.66;99634.31;4940543;28;45734;-70
2023/01/09 04:06:04;;;;;;;;;2.50;0.75;;;;;10.38;66.83;99640.16;4944533;28;45510;-70
2023/01/09 04:08:29;;;;;;;;;2.25;0.50;;;;;10.37;67.52;99662.44;4940084;28;45351;-70
2023/01/09 04:10:55;;;;;;;;;1.00;0.00;;;;;10.37;67.68;99662.44;4946577;28;46405;-70
2023/01/09 04:13:21;;;;;;;;;1.25;1.25;;;;;10.42;67.63;99670.22;4929504;28;45320;-70
2023/01/09 04:15:46;;;;;;;;;1.00;1.00;;;;;10.41;67.82;99669.34;4945134;28;45413;-71
2023/01/09 04:18:12;;;;;;;;;3.25;0.00;;;;;10.43;67.61;99685.28;4941151;28;45294;-70
2023/01/09 04:20:38;;;;;;;;;4.00;2.00;;;;;10.38;67.38;99681.03;4950237;28;46090;-70
2023/01/09 04:23:03;;;;;;;;;3.00;0.00;;;;;10.25;67.20;99655.84;4945431;28;45523;-70
2023/01/09 04:25:29;;;;;;;;;0.00;0.00;;;;;10.46;67.62;99699.34;4945839;28;45441;-70
2023/01/09 04:27:54;;;;;;;;;1.00;1.00;;;;;10.42;67.60;99687.06;4948935;28;45422;-70
2023/01/09 04:30:20;;;;;;;;;1.00;1.00;;;;;10.46;67.58;99690.50;4943483;28;47034;-70
2023/01/09 04:32:45;;;;;;;;;0.75;0.75;;;;;10.51;67.48;99691.13;4950507;28;45393;-70
2023/01/09 04:35:11;;;;;;;;;1.75;0.00;;;;;10.45;67.25;99686.06;4943666;28;45569;-70
2023/01/09 04:37:36;;;;;;;;;2.25;1.00;;;;;10.42;67.58;99676.41;4941755;28;45347;-70
2023/01/09 04:40:12;;;;;;;;;1.00;0.00;;;;;10.44;67.66;99681.66;4946376;28;47695;-70
2023/01/09 04:42:38;;;;;;;;;1.00;1.00;;;;;10.47;67.54;99689.53;4950164;28;45576;-70
2023/01/09 04:45:05;;;;;;;;;1.00;0.25;;;;;10.35;67.56;99673.16;4941842;28;45319;-70
2023/01/09 04:47:31;;;;;;;;;2.00;0.00;;;;;10.43;67.38;99674.63;4952120;28;45304;-70
2023/01/09 04:49:57;;;;;;;;;0.00;0.00;;;;;10.45;67.81;99686.94;4938360;28;48234;-70
2023/01/09 04:52:23;;;;;;;;;3.50;2.00;;;;;10.46;67.90;99679.81;4961823;28;45404;-70
2023/01/09 04:54:48;;;;;;;;;1.75;0.25;;;;;10.48;67.45;99681.44;4950478;28;45425;-70
2023/01/09 04:57:14;;;;;;;;;1.00;0.00;;;;;10.53;67.49;99689.25;4942662;28;45627;-70
2023/01/09 04:59:39;;;;;;;;;1.00;1.00;;;;;10.53;67.30;99702.56;4950768;28;46993;-70
2023/01/09 05:02:04;;;;;;;;;1.00;0.00;;;;;10.42;67.48;99683.56;4950467;28;45456;-70
2023/01/09 05:04:30;;;;;;;;;0.00;0.00;;;;;10.52;67.36;99693.72;4941433;28;45390;-70
2023/01/09 05:06:55;;;;;;;;;1.00;0.00;;;;;10.52;67.65;99700.84;4950134;28;45384;-70
2023/01/09 05:09:21;;;;;;;;;1.50;0.00;;;;;10.56;67.62;99699.75;4944867;28;45940;-70
2023/01/09 05:11:47;;;;;;;;;3.00;1.00;;;;;10.35;67.33;99657.16;4954534;28;45328;-71
2023/01/09 05:14:13;;;;;;;;;0.00;0.00;;;;;10.54;67.24;99694.50;4944925;28;45401;-70
2023/01/09 05:16:38;;;;;;;;;1.75;0.25;;;;;10.63;67.43;99703.84;4941215;28;45259;-70
2023/01/09 05:19:03;;;;;;;;;5.00;1.00;;;;;10.60;67.19;99700.47;4941545;28;47325;-70
2023/01/09 05:21:29;;;;;;;;;0.00;0.00;;;;;10.42;67.51;99673.75;4938852;28;45367;-70
2023/01/09 05:23:54;;;;;;;;;1.75;1.00;;;;;10.38;67.37;99675.69;4943316;28;45808;-70
2023/01/09 05:26:23;;;;;;;;;2.50;0.50;;;;;10.61;67.33;99712.84;4946511;28;45448;-70
2023/01/09 05:28:55;;;;;;;;;1.50;0.00;;;;;10.49;67.66;99695.66;4947342;28;45550;-70
2023/01/09 05:31:22;;;;;;;;;1.75;0.00;;;;;10.38;67.11;99682.84;4952213;28;45516;-70
2023/01/09 05:33:47;;;;;;;;;1.75;1.00;;;;;10.61;67.13;99728.88;4941985;28;45453;-70
2023/01/09 05:36:13;;;;;;;;;2.00;0.00;;;;;10.55;67.15;99730.03;4944266;28;45364;-70
2023/01/09 05:38:38;;;;;;;;;1.50;1.00;;;;;10.56;67.55;99729.13;4939676;28;45509;-70
2023/01/09 05:41:04;;;;;;;;;0.50;0.50;;;;;10.54;67.59;99729.19;4957581;28;45593;-70
2023/01/09 05:43:29;;;;;;;;;0.00;0.00;;;;;10.57;67.01;99723.72;4955370;28;45400;-70
2023/01/09 05:45:55;;;;;;;;;2.00;2.00;;;;;10.63;67.40;99743.03;4947899;28;45551;-70
2023/01/09 05:48:21;;;;;;;;;0.75;0.00;;;;;10.63;67.09;99751.91;4939935;28;45402;-70
2023/01/09 05:50:46;;;;;;;;;1.50;0.00;;;;;10.58;67.46;99740.56;4960173;28;45594;-70
2023/01/09 05:53:11;;;;;;;;;0.00;0.00;;;;;10.56;67.11;99740.66;4938304;28;45505;-70
2023/01/09 05:55:37;;;;;;;;;0.50;0.00;;;;;10.48;66.94;99725.94;4967477;28;45352;-70
2023/01/09 05:58:02;;;;;;;;;2.75;0.75;;;;;10.64;66.65;99745.63;4939917;28;45538;-70
2023/01/09 06:00:28;;;;;;;;;0.50;0.50;;;;;10.66;66.43;99759.75;4942819;28;45367;-70
2023/01/09 06:02:53;;;;;;;;;1.00;0.00;;;;;10.63;66.54;99751.03;4940056;28;45440;-70
2023/01/09 06:05:19;;;;;;;;;0.00;0.00;;;;;10.53;66.74;99738.13;4940744;28;45600;-70
2023/01/09 06:07:44;;;;;;;;;1.25;0.75;;;;;10.66;66.74;99758.88;4940407;28;45409;-70
2023/01/09 06:10:11;;;;;;;;;0.50;0.00;;;;;10.70;66.37;99758.66;4952036;28;45513;-70
2023/01/09 06:12:37;;;;;;;;;1.50;1.00;;;;;10.77;66.27;99766.38;4949327;28;45575;-70
2023/01/09 06:15:03;;;;;;;;;0.00;0.00;;;;;10.61;65.59;99735.09;4958076;28;45407;-70
2023/01/09 06:17:28;;;;;;;;;1.00;0.00;;;;;10.71;65.98;99748.88;4938990;28;47658;-70
2023/01/09 06:19:54;;;;;;;;;1.50;1.00;;;;;10.61;65.89;99728.88;4937895;28;46029;-70
2023/01/09 06:22:19;;;;;;;;;3.25;0.50;;;;;10.69;65.79;99748.94;4944068;28;45811;-70
2023/01/09 06:24:44;;;;;;;;;3.00;0.50;;;;;10.73;65.89;99763.00;4953245;28;45960;-70
2023/01/09 06:27:11;;;;;;;;;0.00;0.00;;;;;10.64;65.82;99752.75;4952985;28;48003;-70
2023/01/09 06:29:37;;;;;;;;;1.50;0.00;;;;;10.70;65.22;99780.00;4947805;28;45484;-70
2023/01/09 06:32:02;;;;;;;;;3.00;1.00;;;;;10.62;65.38;99779.50;4937325;28;45321;-71
2023/01/09 06:34:28;;;;;;;;;1.00;1.00;;;;;10.66;65.26;99798.91;4947096;28;45584;-71
2023/01/09 06:36:53;;;;;;;;;0.00;0.00;;;;;10.60;65.64;99780.53;4937356;28;47089;-70
2023/01/09 06:39:18;;;;;;;;;0.00;0.00;;;;;10.70;65.41;99801.34;4940533;28;45315;-70
2023/01/09 06:41:44;;;;;;;;;0.00;0.00;;;;;10.59;64.97;99793.00;4940252;28;45500;-71
2023/01/09 06:44:09;;;;;;;;;0.00;0.00;;;;;10.61;64.75;99800.94;4941493;28;45318;-70
2023/01/09 06:46:35;;;;;;;;;0.00;0.00;;;;;10.52;64.90;99789.78;4944029;28;46550;-70
2023/01/09 06:49:00;;;;;;;;;0.00;0.00;;;;;10.61;64.92;99820.50;4937995;28;45932;-70
2023/01/09 06:51:25;;;;;;;;;0.25;0.25;;;;;10.58;65.03;99809.97;4943404;28;45334;-70
2023/01/09 06:53:50;;;;;;;;;0.25;0.00;;;;;10.59;64.44;99817.00;4939551;28;45465;-70
2023/01/09 06:56:16;;;;;;;;;1.00;0.00;;;;;10.47;64.78;99794.44;4938188;28;46008;-70
2023/01/09 06:58:41;;;;;;;;;1.00;0.00;;;;;10.49;64.81;99816.59;4936159;28;45506;-70
2023/01/09 07:01:08;;;;;;;;;4.75;0.00;;;;;10.53;64.95;99811.97;4939456;28;45552;-70
2023/01/09 07:03:33;;;;;;;;;1.00;0.75;;;;;10.54;64.79;99816.38;4939670;28;46222;-70
2023/01/09 07:05:58;;;;;;;;;3.25;0.50;;;;;10.57;64.65;99824.22;4947726;28;45401;-74
2023/01/09 07:08:24;;;;;;;;;0.00;0.00;;;;;10.69;64.78;99844.13;4943498;28;45416;-79
2023/01/09 07:10:49;;;;;;;;;0.00;0.00;;;;;10.65;64.59;99840.75;4935759;28;45525;-73
2023/01/09 07:13:14;;;;;;;;;1.00;0.00;;;;;10.63;64.36;99839.97;4939024;28;45551;-73
2023/01/09 07:15:40;;;;;;;;;3.00;0.00;;;;;10.60;64.47;99837.44;4941728;28;45374;-75
2023/01/09 07:18:05;;;;;;;;;0.00;0.00;;;;;10.63;64.32;99847.13;4942750;28;45451;-75
2023/01/09 07:20:30;;;;;;;;;1.75;0.00;;;;;10.64;64.01;99846.16;4942323;28;45378;-74
2023/01/09 07:22:56;;;;;;;;;0.00;0.00;;;;;10.69;63.83;99855.69;4951689;28;45337;-73
2023/01/09 07:25:21;;;;;;;;;0.00;0.00;;;;;10.69;63.73;99845.03;4936322;28;46986;-74
2023/01/09 07:27:47;;;;;;;;;1.50;0.50;;;;;10.63;63.34;99842.63;4946157;28;45351;-73
2023/01/09 07:30:13;;;;;;;;;1.00;0.00;;;;;10.58;63.23;99844.66;4941250;28;45418;-73
2023/01/09 07:32:39;;;;;;;;;0.00;0.00;;;;;10.62;63.64;99842.69;4941521;28;45663;-73
2023/01/09 07:35:07;;;;;;;;;0.25;0.00;;;;;10.55;63.34;99829.63;4935760;28;45491;-73
2023/01/09 07:37:33;;;;;;;;;0.00;0.00;;;;;10.50;63.19;99836.13;4942230;28;45764;-72
2023/01/09 07:39:58;;;;;;;;;0.75;0.00;;;;;10.60;63.18;99857.94;4943079;28;45374;-73
2023/01/09 07:42:24;;;;;;;;;0.00;0.00;;;;;10.61;63.58;99849.84;4937671;28;45795;-75
2023/01/09 07:44:49;;;;;;;;;0.00;0.00;;;;;10.59;63.24;99862.38;4939962;28;47597;-71
2023/01/09 07:47:15;;;;;;;;;0.00;0.00;;;;;10.61;63.44;99864.97;4947064;28;45496;-73
2023/01/09 07:49:40;;;;;;;;;0.50;0.25;;;;;10.44;63.29;99837.31;4965940;28;45428;-73
2023/01/09 07:52:06;;;;;;;;;0.00;0.00;;;;;10.51;63.40;99873.44;4939983;28;45429;-75
2023/01/09 07:54:31;;;;;;;;;0.00;0.00;;;;;10.62;63.08;99888.06;4944524;28;45579;-68
2023/01/09 07:56:56;;;;;;;;;0.50;0.00;;;;;10.60;63.35;99898.81;4955485;28;45464;-71
2023/01/09 07:59:22;;;;;;;;;0.75;0.00;;;;;10.45;63.13;99875.50;4945009;28;45279;-71
2023/01/09 08:01:47;;;;;;;;;0.00;0.00;;;;;10.35;63.32;99864.38;4947083;28;45568;-71
2023/01/09 08:04:13;;;;;;;;;0.00;0.00;;;;;10.58;63.32;99903.38;4956190;28;47041;-72
2023/01/09 08:06:38;;;;;;;;;0.00;0.00;;;;;10.57;63.09;99913.19;4941737;28;45444;-71
2023/01/09 08:09:03;;;;;;;;;0.00;0.00;;;;;10.40;63.08;99882.84;4947742;28;45457;-72
2023/01/09 08:11:29;;;;;;;;;1.75;0.00;;;;;10.49;63.05;99896.66;4944357;28;45625;-72
2023/01/09 08:13:54;;;;;;;;;2.75;0.00;;;;;10.34;62.95;99875.97;4945765;28;45983;-71
2023/01/09 08:16:22;;;;;;;;;0.00;0.00;;;;;10.59;63.58;99912.22;4943063;28;45349;-72
2023/01/09 08:18:47;;;;;;;;;1.00;0.00;;;;;10.44;62.95;99893.31;4945597;28;45417;-71
2023/01/09 08:21:13;;;;;;;;;0.00;0.00;;;;;10.46;63.21;99912.78;4941277;28;45555;-71
2023/01/09 08:23:39;;;;;;;;;0.00;0.00;;;;;10.59;63.07;99933.56;4935023;28;46166;-71
2023/01/09 08:26:04;;;;;;;;;0.00;0.00;;;;;10.47;62.84;99910.97;4938734;28;45626;-70
2023/01/09 08:28:31;;;;;;;;;0.00;0.00;;;;;10.61;62.78;99940.59;4948500;28;45749;-71
2023/01/09 08:30:56;;;;;;;;;3.00;0.00;;;;;10.61;63.14;99959.28;4936717;28;47071;-71
2023/01/09 08:33:22;;;;;;;;;2.25;0.25;;;;;10.59;62.62;99945.09;4941300;28;45483;-70
2023/01/09 08:35:47;;;;;;;;;1.00;0.00;;;;;10.38;62.33;99901.59;4955608;28;45325;-71
2023/01/09 08:38:13;;;;;;;;;0.00;0.00;;;;;10.53;62.53;99945.41;4937659;28;45752;-71
2023/01/09 08:40:38;;;;;;;;;0.00;0.00;;;;;10.41;63.01;99929.94;4946271;28;45576;-71
2023/01/09 08:48:33;;;;;;;;;0.50;0.00;;;;;10.60;62.89;99954.84;4940126;28;45549;-71
2023/01/09 08:50:58;;;;;;;;;0.50;0.00;;;;;10.43;62.55;99933.41;4941251;28;45493;-70
2023/01/09 08:53:24;;;;;;;;;0.25;0.00;;;;;10.38;62.14;99947.81;4939344;28;45502;-70
2023/01/09 08:55:49;;;;;;;;;0.00;0.00;;;;;10.51;62.17;99981.97;4944188;28;45502;-71
2023/01/09 08:58:14;;;;;;;;;0.00;0.00;;;;;10.50;62.49;99985.56;4939758;28;45861;-70
2023/01/09 09:00:40;;;;;;;;;0.00;0.00;;;;;10.49;62.23;99983.81;4941308;28;45572;-71
2023/01/09 09:03:05;;;;;;;;;1.00;0.00;;;;;10.49;62.91;99989.16;4953452;28;48069;-71
2023/01/09 09:05:32;;;;;;;;;0.00;0.00;;;;;10.44;62.53;99978.72;4938359;28;45396;-71
2023/01/09 09:07:58;;;;;;;;;0.00;0.00;;;;;10.31;62.93;99972.16;4940800;28;45513;-71
2023/01/09 09:10:26;;;;;;;;;0.00;0.00;;;;;10.47;62.44;99999.88;4941579;28;45484;-70
2023/01/09 09:12:54;;;;;;;;;0.00;0.00;;;;;10.25;62.32;99973.25;4938914;28;47072;-70
2023/01/09 09:15:23;;;;;;;;;0.00;0.00;;;;;10.41;62.55;100008.19;4936559;28;45531;-71
2023/01/09 09:17:53;;;;;;;;;0.00;0.00;;;;;10.46;62.38;100024.00;4941167;28;45402;-70
2023/01/09 09:20:23;;;;;;;;;0.00;0.00;;;;;10.31;62.76;100007.69;4940753;28;45696;-70
2023/01/09 09:22:49;;;;;;;;;0.00;0.00;;;;;10.40;62.13;100024.25;4936486;28;47075;-70
2023/01/09 09:25:15;;;;;;;;;0.00;0.00;;;;;10.25;62.14;99999.06;4953331;28;45550;-71
2023/01/09 09:27:41;;;;;;;;;1.00;0.00;;;;;10.16;61.95;100011.88;4939957;28;45489;-71
2023/01/09 09:30:07;;;;;;;;;0.00;0.00;;;;;10.35;62.59;100049.31;4938290;28;45777;-71
2023/01/09 09:32:32;;;;;;;;;0.00;0.00;;;;;10.33;62.39;100043.19;4939318;28;47583;-71
2023/01/09 09:34:58;;;;;;;;;0.00;0.00;;;;;10.14;62.37;100000.41;4954515;28;45513;-71
2023/01/09 09:37:23;;;;;;;;;0.00;0.00;;;;;10.38;62.59;100067.00;4938928;28;45402;-71
2023/01/09 09:39:49;;;;;;;;;0.00;0.00;;;;;10.33;62.51;100066.34;4939764;28;45230;-72
2023/01/09 09:45:57;;;;;;;;;1.00;0.00;;;;;10.42;62.50;100059.75;4937088;28;45707;-72
2023/01/09 09:48:36;;;;;;;;;0.00;0.00;;;;;10.44;62.55;100079.22;4946161;28;45775;-71
2023/01/09 09:51:11;;;;;;;;;0.00;0.00;;;;;10.45;62.74;100083.63;4959081;28;45764;-71
2023/01/09 09:54:01;;;;;;;;;1.25;0.00;;;;;10.47;62.63;100092.44;4939156;28;46393;-71
2023/01/09 09:56:31;;;;;;;;;0.00;0.00;;;;;10.41;62.40;100092.66;4938916;28;45720;-75
2023/01/09 09:59:03;;;;;;;;;0.00;0.00;;;;;10.36;62.71;100090.22;4938137;28;45561;-74
2023/01/09 10:01:48;;;;;;;;;0.00;0.00;;;;;10.46;62.21;100104.91;4939617;28;45559;-70
2023/01/09 10:04:17;;;;;;;;;0.00;0.00;;;;;10.32;62.42;100092.16;4951933;28;45802;-71
2023/01/09 10:06:46;;;;;;;;;0.00;0.00;;;;;10.33;62.63;100087.69;4943151;28;45425;-71
2023/01/09 10:09:28;;;;;;;;;0.00;0.00;;;;;10.40;62.67;100104.31;4952650;28;45566;-71
2023/01/09 10:12:11;;;;;;;;;0.00;0.00;;;;;10.59;62.56;100125.72;4926468;28;45513;-71
2023/01/09 10:14:37;;;;;;;;;0.00;0.00;;;;;10.61;62.24;100134.53;4937012;28;46690;-71
2023/01/09 10:17:44;;;;;;;;;1.00;0.00;;;;;10.61;62.54;100122.06;4942994;28;46162;-71
2023/01/09 10:20:44;;;;;;;;;0.75;0.75;;;;;10.56;62.20;100116.94;4945602;28;45622;-71
2023/01/09 10:23:22;;;;;;;;;0.00;0.00;;;;;10.68;62.10;100130.69;4936176;28;45529;-71
2023/01/09 10:25:55;;;;;;;;;0.00;0.00;;;;;10.71;62.50;100135.91;4932742;28;46776;-71
2023/01/09 10:28:39;;;;;;;;;1.00;0.00;;;;;10.57;62.11;100128.47;4931287;28;45454;-70
2023/01/09 10:31:40;;;;;;;;;1.00;0.00;;;;;10.47;62.41;100106.63;4954335;28;45621;-70
2023/01/09 10:34:24;;;;;;;;;1.25;0.00;;;;;10.78;61.92;100153.38;4937225;28;45609;-70
2023/01/09 10:37:04;;;;;;;;;0.00;0.00;;;;;10.79;62.31;100160.44;4938792;28;46365;-70
2023/01/09 10:39:45;;;;;;;;;0.00;0.00;;;;;10.82;61.93;100167.47;4936330;28;45388;-71
2023/01/09 10:42:14;;;;;;;;;0.00;0.00;;;;;10.83;61.64;100171.88;4939362;28;45362;-70
2023/01/09 10:44:56;;;;;;;;;0.50;0.00;;;;;10.77;61.88;100172.13;4939974;28;45713;-70
2023/01/09 10:47:28;;;;;;;;;0.00;0.00;;;;;10.69;61.37;100169.78;4936027;28;46692;-70
2023/01/09 10:49:55;;;;;;;;;0.75;0.00;;;;;10.57;61.37;100150.69;4933739;28;45594;-71
2023/01/09 10:52:27;;;;;;;;;0.50;0.00;;;;;10.67;61.40;100160.97;4941518;28;46963;-71
2023/01/09 10:55:01;;;;;;;;;0.50;0.00;;;;;10.74;61.50;100187.34;4957567;28;45423;-71
2023/01/09 10:57:44;;;;;;;;;0.00;0.00;;;;;10.81;61.26;100184.41;4955761;28;47142;-72
2023/01/09 11:00:19;;;;;;;;;0.00;0.00;;;;;10.60;61.09;100138.16;4952665;28;45614;-71
2023/01/09 11:02:45;;;;;;;;;0.00;0.00;;;;;10.62;61.61;100149.63;4941416;28;45628;-71
2023/01/09 11:05:21;;;;;;;;;0.75;0.00;;;;;10.84;61.43;100187.84;4942275;28;45318;-71
2023/01/09 11:07:55;;;;;;;;;0.00;0.00;;;;;10.72;61.44;100164.31;4941861;28;45601;-71
2023/01/09 11:10:21;;;;;;;;;0.00;0.00;;;;;10.87;61.18;100190.34;4944545;28;45303;-71
2023/01/09 11:12:46;;;;;;;;;0.00;0.00;;;;;10.84;61.47;100190.50;4941557;28;45463;-71
2023/01/09 11:15:14;;;;;;;;;1.00;0.00;;;;;10.85;61.82;100184.22;4954117;28;45837;-71
2023/01/09 11:17:41;;;;;;;;;2.25;0.00;;;;;10.80;61.34;100177.34;4956462;28;46965;-71
2023/01/09 11:20:27;;;;;;;;;1.25;0.00;;;;;10.80;61.26;100166.66;4943112;28;45393;-71
2023/01/09 11:22:56;;;;;;;;;0.25;0.00;;;;;10.80;61.49;100164.88;4940204;28;45480;-71
2023/01/09 11:25:25;;;;;;;;;0.00;0.00;;;;;10.79;61.43;100157.78;4941868;28;45299;-71
2023/01/09 11:28:00;;;;;;;;;1.00;0.00;;;;;10.93;61.29;100179.41;4940615;28;46082;-71
2023/01/09 11:30:26;;;;;;;;;1.00;0.00;;;;;10.79;61.09;100148.91;4941995;28;45410;-71
2023/01/09 11:32:53;;;;;;;;;1.50;0.00;;;;;11.01;61.15;100186.22;4953691;28;45345;-71
2023/01/09 11:35:21;;;;;;;;;0.00;0.00;;;;;11.06;61.22;100194.91;4939551;28;45466;-71
2023/01/09 11:37:49;;;;;;;;;0.00;0.00;;;;;11.09;60.73;100187.66;4954665;28;48226;-71
2023/01/09 11:40:20;;;;;;;;;0.00;0.00;;;;;11.08;60.79;100175.22;4940114;28;45541;-71
2023/01/09 11:43:12;;;;;;;;;0.00;0.00;;;;;11.13;61.10;100189.25;4942314;28;45507;-71
2023/01/09 11:45:52;;;;;;;;;2.00;0.00;;;;;10.93;61.14;100162.53;4939719;28;45337;-70
2023/01/09 11:48:29;;;;;;;;;0.00;0.00;;;;;11.17;60.86;100197.13;4939757;28;46128;-70
2023/01/09 11:50:57;;;;;;;;;0.00;0.00;;;;;11.16;60.75;100184.69;4951924;28;45402;-70
2023/01/09 11:53:24;;;;;;;;;0.50;0.00;;;;;11.17;60.75;100200.66;4938246;28;45637;-70